sensor_id;sensor_type;location;lat;lon;timestamp;pressure;altitude;pressure_sealevel;temperature;humidity
4745;BME280;2386;42.138;24.746;2023-04-26T00:01:17;98626.88;;;15.42;100.00
4745;BME280;2386;42.138;24.746;2023-04-26T00:03:42;98626.13;;;15.32;100.00
4745;BME280;2386;42.138;24.746;2023-04-26T00:06:08;98621.25;;;15.29;100.00
4745;BME280;2386;42.138;24.746;2023-04-26T00:08:37;98632.13;;;15.34;100.00
4745;BME280;2386;42.138;24.746;2023-04-26T00:11:03;98631.09;;;15.25;100.00
4745;BME280;2386;42.138;24.746;2023-04-26T00:13:28;98626.47;;;15.25;100.00
4745;BME280;2386;42.138;24.746;2023-04-26T00:15:53;98620.72;;;15.27;100.00
4745;BME280;2386;42.138;24.746;2023-04-26T00:18:19;98627.53;;;15.29;100.00
4745;BME280;2386;42.138;24.746;2023-04-26T00:20:44;98616.31;;;15.31;100.00
4745;BME280;2386;42.138;24.746;2023-04-26T00:23:10;98619.28;;;15.34;100.00
4745;BME280;2386;42.138;24.746;2023-04-26T00:25:36;98613.78;;;15.39;100.00
4745;BME280;2386;42.138;24.746;2023-04-26T00:28:02;98603.13;;;15.38;100.00
4745;BME280;2386;42.138;24.746;2023-04-26T00:30:28;98608.34;;;15.34;100.00
4745;BME280;2386;42.138;24.746;2023-04-26T00:32:53;98603.94;;;15.38;100.00
4745;BME280;2386;42.138;24.746;2023-04-26T00:35:19;98601.50;;;15.37;100.00
4745;BME280;2386;42.138;24.746;2023-04-26T00:37:45;98592.53;;;15.31;100.00
4745;BME280;2386;42.138;24.746;2023-04-26T00:40:11;98576.72;;;15.28;100.00
4745;BME280;2386;42.138;24.746;2023-04-26T00:42:38;98576.66;;;15.33;100.00
4745;BME280;2386;42.138;24.746;2023-04-26T00:45:04;98584.53;;;15.40;100.00
4745;BME280;2386;42.138;24.746;2023-04-26T00:47:30;98567.69;;;15.28;100.00
4745;BME280;2386;42.138;24.746;2023-04-26T00:49:56;98572.31;;;15.32;100.00
4745;BME280;2386;42.138;24.746;2023-04-26T00:52:21;98567.94;;;15.31;100.00
4745;BME280;2386;42.138;24.746;2023-04-26T00:54:48;98561.66;;;15.31;100.00
4745;BME280;2386;42.138;24.746;2023-04-26T00:57:14;98568.75;;;15.32;100.00
4745;BME280;2386;42.138;24.746;2023-04-26T00:59:39;98559.56;;;15.23;100.00
4745;BME280;2386;42.138;24.746;2023-04-26T01:02:05;98563.34;;;15.27;100.00
4745;BME280;2386;42.138;24.746;2023-04-26T01:04:31;98567.75;;;15.23;100.00
4745;BME280;2386;42.138;24.746;2023-04-26T01:06:59;98568.00;;;15.26;100.00
4745;BME280;2386;42.138;24.746;2023-04-26T01:09:27;98560.41;;;15.18;100.00
4745;BME280;2386;42.138;24.746;2023-04-26T01:11:52;98560.97;;;15.15;100.00
4745;BME280;2386;42.138;24.746;2023-04-26T01:14:21;98556.34;;;15.16;100.00
4745;BME280;2386;42.138;24.746;2023-04-26T01:16:47;98544.91;;;15.08;100.00
4745;BME280;2386;42.138;24.746;2023-04-26T01:19:14;98563.44;;;15.17;100.00
4745;BME280;2386;42.138;24.746;2023-04-26T01:21:41;98561.19;;;15.24;100.00
4745;BME280;2386;42.138;24.746;2023-04-26T01:24:11;98547.97;;;15.02;100.00
4745;BME280;2386;42.138;24.746;2023-04-26T01:26:38;98574.06;;;15.18;100.00
4745;BME280;2386;42.138;24.746;2023-04-26T01:29:17;98558.69;;;14.93;100.00
4745;BME280;2386;42.138;24.746;2023-04-26T01:31:44;98561.47;;;14.88;100.00
4745;BME280;2386;42.138;24.746;2023-04-26T01:34:09;98554.72;;;14.81;100.00
4745;BME280;2386;42.138;24.746;2023-04-26T01:36:36;98546.25;;;14.82;100.00
4745;BME280;2386;42.138;24.746;2023-04-26T01:39:02;98551.47;;;14.78;100.00
4745;BME280;2386;42.138;24.746;2023-04-26T01:41:28;98563.09;;;14.89;100.00
4745;BME280;2386;42.138;24.746;2023-04-26T01:43:53;98546.25;;;14.82;100.00
4745;BME280;2386;42.138;24.746;2023-04-26T01:46:20;98537.53;;;14.80;100.00
4745;BME280;2386;42.138;24.746;2023-04-26T01:48:45;98543.03;;;14.75;100.00
4745;BME280;2386;42.138;24.746;2023-04-26T01:51:11;98523.53;;;14.53;100.00
4745;BME280;2386;42.138;24.746;2023-04-26T01:53:36;98548.28;;;14.66;100.00
4745;BME280;2386;42.138;24.746;2023-04-26T01:56:02;98537.84;;;14.29;100.00
4745;BME280;2386;42.138;24.746;2023-04-26T01:58:28;98534.31;;;14.24;100.00
4745;BME280;2386;42.138;24.746;2023-04-26T02:00:55;98545.75;;;14.31;100.00
4745;BME280;2386;42.138;24.746;2023-04-26T02:03:21;98535.72;;;14.16;100.00
4745;BME280;2386;42.138;24.746;2023-04-26T02:05:46;98550.44;;;14.20;100.00
4745;BME280;2386;42.138;24.746;2023-04-26T02:08:12;98546.59;;;14.21;100.00
4745;BME280;2386;42.138;24.746;2023-04-26T02:10:37;98554.81;;;14.16;100.00
4745;BME280;2386;42.138;24.746;2023-04-26T02:13:03;98541.28;;;13.96;100.00
4745;BME280;2386;42.138;24.746;2023-04-26T02:15:29;98548.34;;;14.07;100.00
4745;BME280;2386;42.138;24.746;2023-04-26T02:17:55;98562.19;;;14.15;100.00
4745;BME280;2386;42.138;24.746;2023-04-26T02:20:20;98563.06;;;14.06;100.00
4745;BME280;2386;42.138;24.746;2023-04-26T02:22:46;98558.72;;;14.05;100.00
4745;BME280;2386;42.138;24.746;2023-04-26T02:25:11;98559.53;;;14.05;100.00
4745;BME280;2386;42.138;24.746;2023-04-26T02:27:36;98563.63;;;14.03;100.00
4745;BME280;2386;42.138;24.746;2023-04-26T02:30:03;98556.81;;;14.00;100.00
4745;BME280;2386;42.138;24.746;2023-04-26T02:32:28;98562.53;;;14.04;100.00
4745;BME280;2386;42.138;24.746;2023-04-26T02:34:54;98561.38;;;14.15;100.00
4745;BME280;2386;42.138;24.746;2023-04-26T02:37:40;98563.72;;;14.32;100.00
4745;BME280;2386;42.138;24.746;2023-04-26T02:40:06;98548.19;;;14.32;100.00
4745;BME280;2386;42.138;24.746;2023-04-26T02:42:34;98557.47;;;14.31;100.00
4745;BME280;2386;42.138;24.746;2023-04-26T02:45:00;98562.19;;;14.15;100.00
4745;BME280;2386;42.138;24.746;2023-04-26T02:47:25;98564.34;;;14.19;100.00
4745;BME280;2386;42.138;24.746;2023-04-26T02:49:50;98565.13;;;14.29;100.00
4745;BME280;2386;42.138;24.746;2023-04-26T02:52:35;98567.59;;;14.21;100.00
4745;BME280;2386;42.138;24.746;2023-04-26T02:55:02;98576.31;;;14.28;100.00
4745;BME280;2386;42.138;24.746;2023-04-26T02:57:28;98576.06;;;14.19;100.00
4745;BME280;2386;42.138;24.746;2023-04-26T02:59:53;98573.31;;;14.24;100.00
4745;BME280;2386;42.138;24.746;2023-04-26T03:02:19;98568.41;;;14.26;100.00
4745;BME280;2386;42.138;24.746;2023-04-26T03:04:46;98571.38;;;14.30;100.00
4745;BME280;2386;42.138;24.746;2023-04-26T03:07:12;98564.84;;;14.26;100.00
4745;BME280;2386;42.138;24.746;2023-04-26T03:09:37;98551.44;;;14.34;100.00
4745;BME280;2386;42.138;24.746;2023-04-26T03:12:06;98541.59;;;14.43;100.00
4745;BME280;2386;42.138;24.746;2023-04-26T03:14:32;98545.31;;;14.63;100.00
4745;BME280;2386;42.138;24.746;2023-04-26T03:16:58;98543.63;;;14.67;100.00
4745;BME280;2386;42.138;24.746;2023-04-26T03:19:24;98549.91;;;14.67;100.00
4745;BME280;2386;42.138;24.746;2023-04-26T03:21:50;98551.50;;;14.73;100.00
4745;BME280;2386;42.138;24.746;2023-04-26T03:24:15;98547.16;;;14.72;100.00
4745;BME280;2386;42.138;24.746;2023-04-26T03:26:41;98561.47;;;14.54;100.00
4745;BME280;2386;42.138;24.746;2023-04-26T03:29:07;98548.81;;;14.68;100.00
4745;BME280;2386;42.138;24.746;2023-04-26T03:31:32;98540.38;;;14.65;100.00
4745;BME280;2386;42.138;24.746;2023-04-26T03:33:58;98551.78;;;14.72;100.00
4745;BME280;2386;42.138;24.746;2023-04-26T03:36:23;98551.41;;;14.44;100.00
4745;BME280;2386;42.138;24.746;2023-04-26T03:38:48;98557.91;;;14.54;100.00
4745;BME280;2386;42.138;24.746;2023-04-26T03:41:14;98577.84;;;14.54;100.00
4745;BME280;2386;42.138;24.746;2023-04-26T03:43:39;98572.13;;;14.51;100.00
4745;BME280;2386;42.138;24.746;2023-04-26T03:46:05;98575.34;;;14.58;100.00
4745;BME280;2386;42.138;24.746;2023-04-26T03:48:30;98577.59;;;14.45;100.00
4745;BME280;2386;42.138;24.746;2023-04-26T03:50:56;98583.31;;;14.49;100.00
4745;BME280;2386;42.138;24.746;2023-04-26T03:53:21;98592.31;;;14.50;100.00
4745;BME280;2386;42.138;24.746;2023-04-26T03:55:46;98589.06;;;14.48;100.00
4745;BME280;2386;42.138;24.746;2023-04-26T03:58:12;98602.09;;;14.56;100.00
4745;BME280;2386;42.138;24.746;2023-04-26T04:00:38;98580.09;;;14.42;100.00
4745;BME280;2386;42.138;24.746;2023-04-26T04:03:06;98592.38;;;14.34;100.00
4745;BME280;2386;42.138;24.746;2023-04-26T04:05:31;98596.19;;;14.33;100.00
4745;BME280;2386;42.138;24.746;2023-04-26T04:07:57;98593.19;;;14.35;100.00
4745;BME280;2386;42.138;24.746;2023-04-26T04:10:22;98600.53;;;14.44;100.00
4745;BME280;2386;42.138;24.746;2023-04-26T04:12:51;98598.09;;;14.43;100.00
4745;BME280;2386;42.138;24.746;2023-04-26T04:15:18;98597.28;;;14.42;100.00
4745;BME280;2386;42.138;24.746;2023-04-26T04:17:44;98594.22;;;14.49;100.00
4745;BME280;2386;42.138;24.746;2023-04-26T04:20:10;98593.13;;;14.50;100.00
4745;BME280;2386;42.138;24.746;2023-04-26T04:22:35;98602.69;;;14.48;100.00
4745;BME280;2386;42.138;24.746;2023-04-26T04:25:07;98596.25;;;14.23;100.00
4745;BME280;2386;42.138;24.746;2023-04-26T04:27:35;98588.69;;;14.10;100.00
4745;BME280;2386;42.138;24.746;2023-04-26T04:30:01;98601.09;;;14.36;100.00
4745;BME280;2386;42.138;24.746;2023-04-26T04:32:28;98597.63;;;14.21;100.00
4745;BME280;2386;42.138;24.746;2023-04-26T04:34:53;98586.44;;;14.22;100.00
4745;BME280;2386;42.138;24.746;2023-04-26T04:37:19;98597.34;;;14.22;100.00
4745;BME280;2386;42.138;24.746;2023-04-26T04:39:45;98603.41;;;14.09;100.00
4745;BME280;2386;42.138;24.746;2023-04-26T04:42:10;98600.41;;;14.10;100.00
4745;BME280;2386;42.138;24.746;2023-04-26T04:44:37;98601.22;;;14.11;100.00
4745;BME280;2386;42.138;24.746;2023-04-26T04:47:02;98604.03;;;13.80;100.00
4745;BME280;2386;42.138;24.746;2023-04-26T04:49:28;98602.13;;;13.81;100.00
4745;BME280;2386;42.138;24.746;2023-04-26T04:51:57;98594.25;;;13.79;100.00
4745;BME280;2386;42.138;24.746;2023-04-26T04:54:23;98600.44;;;14.05;100.00
4745;BME280;2386;42.138;24.746;2023-04-26T04:56:48;98603.38;;;14.14;100.00
4745;BME280;2386;42.138;24.746;2023-04-26T04:59:15;98601.44;;;14.14;100.00
4745;BME280;2386;42.138;24.746;2023-04-26T05:01:40;98610.25;;;14.01;100.00
4745;BME280;2386;42.138;24.746;2023-04-26T05:04:06;98606.09;;;14.14;100.00
4745;BME280;2386;42.138;24.746;2023-04-26T05:06:31;98609.34;;;14.21;100.00
4745;BME280;2386;42.138;24.746;2023-04-26T05:08:57;98606.00;;;14.34;100.00
4745;BME280;2386;42.138;24.746;2023-04-26T05:11:23;98604.97;;;14.20;100.00
4745;BME280;2386;42.138;24.746;2023-04-26T05:13:49;98609.41;;;14.11;100.00
4745;BME280;2386;42.138;24.746;2023-04-26T05:16:15;98606.03;;;14.29;100.00
4745;BME280;2386;42.138;24.746;2023-04-26T05:18:40;98597.53;;;14.36;100.00
4745;BME280;2386;42.138;24.746;2023-04-26T05:21:06;98593.44;;;14.43;100.00
4745;BME280;2386;42.138;24.746;2023-04-26T05:23:31;98598.03;;;14.53;100.00
4745;BME280;2386;42.138;24.746;2023-04-26T05:26:03;98596.66;;;14.56;100.00
4745;BME280;2386;42.138;24.746;2023-04-26T05:28:30;98586.75;;;14.70;100.00
4745;BME280;2386;42.138;24.746;2023-04-26T05:30:55;98587.03;;;15.02;100.00
4745;BME280;2386;42.138;24.746;2023-04-26T05:33:21;98595.06;;;15.23;100.00
4745;BME280;2386;42.138;24.746;2023-04-26T05:35:47;98589.66;;;15.18;100.00
4745;BME280;2386;42.138;24.746;2023-04-26T05:38:12;98599.47;;;15.19;100.00
4745;BME280;2386;42.138;24.746;2023-04-26T05:40:38;98590.34;;;15.33;100.00
4745;BME280;2386;42.138;24.746;2023-04-26T05:43:03;98601.06;;;15.54;100.00
4745;BME280;2386;42.138;24.746;2023-04-26T05:45:29;98598.63;;;15.52;99.60
4745;BME280;2386;42.138;24.746;2023-04-26T05:47:55;98595.28;;;15.60;100.00
4745;BME280;2386;42.138;24.746;2023-04-26T05:50:20;98591.44;;;15.61;95.60
4745;BME280;2386;42.138;24.746;2023-04-26T05:52:46;98592.34;;;15.57;91.48
4745;BME280;2386;42.138;24.746;2023-04-26T05:55:11;98605.88;;;15.67;90.20
4745;BME280;2386;42.138;24.746;2023-04-26T05:57:37;98598.19;;;15.69;88.43
4745;BME280;2386;42.138;24.746;2023-04-26T06:00:03;98594.22;;;15.56;89.07
4745;BME280;2386;42.138;24.746;2023-04-26T06:02:29;98594.78;;;15.58;90.36
4745;BME280;2386;42.138;24.746;2023-04-26T06:04:55;98613.91;;;15.58;87.88
4745;BME280;2386;42.138;24.746;2023-04-26T06:07:21;98604.53;;;15.64;88.98
4745;BME280;2386;42.138;24.746;2023-04-26T06:09:46;98592.16;;;15.72;87.86
4745;BME280;2386;42.138;24.746;2023-04-26T06:12:12;98612.56;;;15.80;86.48
4745;BME280;2386;42.138;24.746;2023-04-26T06:14:37;98599.78;;;15.99;90.71
4745;BME280;2386;42.138;24.746;2023-04-26T06:17:03;98599.84;;;16.18;88.01
4745;BME280;2386;42.138;24.746;2023-04-26T06:19:28;98602.38;;;16.33;89.48
4745;BME280;2386;42.138;24.746;2023-04-26T06:21:54;98605.13;;;16.33;87.71
4745;BME280;2386;42.138;24.746;2023-04-26T06:24:22;98605.41;;;16.31;86.53
4745;BME280;2386;42.138;24.746;2023-04-26T06:26:48;98596.88;;;16.14;85.08
4745;BME280;2386;42.138;24.746;2023-04-26T06:29:14;98606.81;;;16.05;83.67
4745;BME280;2386;42.138;24.746;2023-04-26T06:31:39;98604.25;;;15.90;85.32
4745;BME280;2386;42.138;24.746;2023-04-26T06:34:04;98604.56;;;15.88;83.18
4745;BME280;2386;42.138;24.746;2023-04-26T06:36:30;98606.25;;;15.84;81.42
4745;BME280;2386;42.138;24.746;2023-04-26T06:38:56;98607.41;;;16.02;85.25
4745;BME280;2386;42.138;24.746;2023-04-26T06:41:22;98602.16;;;15.82;81.94
4745;BME280;2386;42.138;24.746;2023-04-26T06:43:47;98597.50;;;15.82;82.53
4745;BME280;2386;42.138;24.746;2023-04-26T06:46:13;98593.78;;;15.97;84.84
4745;BME280;2386;42.138;24.746;2023-04-26T06:48:38;98598.28;;;15.88;83.03
4745;BME280;2386;42.138;24.746;2023-04-26T06:51:07;98607.94;;;16.04;83.17
4745;BME280;2386;42.138;24.746;2023-04-26T06:53:36;98586.94;;;15.99;83.42
4745;BME280;2386;42.138;24.746;2023-04-26T06:56:02;98599.72;;;16.04;82.68
4745;BME280;2386;42.138;24.746;2023-04-26T06:58:28;98605.84;;;15.96;83.56
4745;BME280;2386;42.138;24.746;2023-04-26T07:00:53;98606.19;;;16.13;86.52
4745;BME280;2386;42.138;24.746;2023-04-26T07:03:19;98599.72;;;16.28;85.31
4745;BME280;2386;42.138;24.746;2023-04-26T07:05:44;98604.44;;;16.41;86.29
4745;BME280;2386;42.138;24.746;2023-04-26T07:08:10;98606.63;;;16.63;85.45
4745;BME280;2386;42.138;24.746;2023-04-26T07:10:36;98603.47;;;16.93;85.43
4745;BME280;2386;42.138;24.746;2023-04-26T07:13:01;98602.59;;;17.12;83.93
4745;BME280;2386;42.138;24.746;2023-04-26T07:15:27;98609.34;;;17.19;82.09
4745;BME280;2386;42.138;24.746;2023-04-26T07:17:52;98605.16;;;17.08;77.67
4745;BME280;2386;42.138;24.746;2023-04-26T07:20:17;98606.00;;;17.22;78.56
4745;BME280;2386;42.138;24.746;2023-04-26T07:22:47;98609.72;;;17.13;77.47
4745;BME280;2386;42.138;24.746;2023-04-26T07:25:12;98619.16;;;17.06;78.07
4745;BME280;2386;42.138;24.746;2023-04-26T07:27:38;98612.72;;;16.97;77.01
4745;BME280;2386;42.138;24.746;2023-04-26T07:30:03;98611.34;;;17.14;80.16
4745;BME280;2386;42.138;24.746;2023-04-26T07:32:30;98617.41;;;17.11;77.86
4745;BME280;2386;42.138;24.746;2023-04-26T07:34:55;98614.88;;;17.00;75.58
4745;BME280;2386;42.138;24.746;2023-04-26T07:37:21;98611.69;;;16.93;76.21
4745;BME280;2386;42.138;24.746;2023-04-26T07:39:49;98613.53;;;16.98;77.90
4745;BME280;2386;42.138;24.746;2023-04-26T07:42:14;98622.06;;;16.96;71.36
4745;BME280;2386;42.138;24.746;2023-04-26T07:44:39;98627.47;;;17.01;72.36
4745;BME280;2386;42.138;24.746;2023-04-26T07:47:10;98615.09;;;17.04;76.50
4745;BME280;2386;42.138;24.746;2023-04-26T07:49:36;98624.06;;;16.91;70.74
4745;BME280;2386;42.138;24.746;2023-04-26T07:52:01;98628.56;;;17.00;74.22
4745;BME280;2386;42.138;24.746;2023-04-26T07:54:27;98616.13;;;16.89;72.81
4745;BME280;2386;42.138;24.746;2023-04-26T07:56:52;98619.31;;;16.96;73.31
4745;BME280;2386;42.138;24.746;2023-04-26T07:59:18;98616.31;;;17.12;73.39
4745;BME280;2386;42.138;24.746;2023-04-26T08:01:44;98624.97;;;17.19;73.89
4745;BME280;2386;42.138;24.746;2023-04-26T08:04:09;98617.34;;;17.16;73.13
4745;BME280;2386;42.138;24.746;2023-04-26T08:06:40;98616.06;;;17.27;76.26
4745;BME280;2386;42.138;24.746;2023-04-26T08:09:09;98611.78;;;17.21;72.64
4745;BME280;2386;42.138;24.746;2023-04-26T08:11:35;98624.72;;;17.01;69.92
4745;BME280;2386;42.138;24.746;2023-04-26T08:14:01;98618.66;;;17.04;70.62
4745;BME280;2386;42.138;24.746;2023-04-26T08:16:26;98620.16;;;17.11;71.01
4745;BME280;2386;42.138;24.746;2023-04-26T08:18:54;98592.44;;;16.98;71.62
4745;BME280;2386;42.138;24.746;2023-04-26T08:21:30;98602.97;;;17.24;72.13
4745;BME280;2386;42.138;24.746;2023-04-26T08:23:58;98601.09;;;17.38;70.41
4745;BME280;2386;42.138;24.746;2023-04-26T08:26:23;98600.22;;;17.24;70.17
4745;BME280;2386;42.138;24.746;2023-04-26T08:28:48;98602.91;;;17.42;69.89
4745;BME280;2386;42.138;24.746;2023-04-26T08:31:14;98584.72;;;17.33;66.76
4745;BME280;2386;42.138;24.746;2023-04-26T08:40:23;98588.75;;;17.54;63.11
4745;BME280;2386;42.138;24.746;2023-04-26T08:43:39;98591.84;;;17.66;60.66
4745;BME280;2386;42.138;24.746;2023-04-26T08:53:45;98581.06;;;18.11;66.04
4745;BME280;2386;42.138;24.746;2023-04-26T08:56:42;98591.03;;;18.07;63.86
4745;BME280;2386;42.138;24.746;2023-04-26T09:02:31;98576.00;;;17.91;57.95
4745;BME280;2386;42.138;24.746;2023-04-26T09:08:53;98581.97;;;17.93;54.18
4745;BME280;2386;42.138;24.746;2023-04-26T09:11:37;98564.81;;;18.01;53.70
4745;BME280;2386;42.138;24.746;2023-04-26T09:14:52;98576.78;;;18.32;54.41
4745;BME280;2386;42.138;24.746;2023-04-26T09:17:39;98574.34;;;18.45;51.47
4745;BME280;2386;42.138;24.746;2023-04-26T09:23:28;98562.03;;;18.78;48.93
4745;BME280;2386;42.138;24.746;2023-04-26T09:28:42;98570.88;;;19.11;49.85
4745;BME280;2386;42.138;24.746;2023-04-26T09:31:07;98570.25;;;19.14;48.87
4745;BME280;2386;42.138;24.746;2023-04-26T09:34:11;98563.88;;;19.27;50.34
4745;BME280;2386;42.138;24.746;2023-04-26T09:40:16;98566.66;;;19.36;50.11
4745;BME280;2386;42.138;24.746;2023-04-26T09:42:42;98570.91;;;19.42;50.22
4745;BME280;2386;42.138;24.746;2023-04-26T09:45:08;98559.91;;;19.42;50.02
4745;BME280;2386;42.138;24.746;2023-04-26T09:47:33;98562.63;;;19.64;50.56
4745;BME280;2386;42.138;24.746;2023-04-26T09:49:59;98557.31;;;19.68;51.07
4745;BME280;2386;42.138;24.746;2023-04-26T09:52:25;98555.00;;;19.92;51.76
4745;BME280;2386;42.138;24.746;2023-04-26T09:54:53;98551.94;;;19.94;49.63
4745;BME280;2386;42.138;24.746;2023-04-26T09:57:20;98553.63;;;19.73;49.99
4745;BME280;2386;42.138;24.746;2023-04-26T09:59:50;98562.78;;;20.08;50.72
4745;BME280;2386;42.138;24.746;2023-04-26T10:02:21;98551.03;;;20.33;49.13
4745;BME280;2386;42.138;24.746;2023-04-26T10:04:49;98540.56;;;20.44;50.77
4745;BME280;2386;42.138;24.746;2023-04-26T10:07:17;98547.28;;;20.20;49.82
4745;BME280;2386;42.138;24.746;2023-04-26T10:09:42;98540.50;;;20.35;50.96
4745;BME280;2386;42.138;24.746;2023-04-26T10:12:10;98537.03;;;20.69;50.85
4745;BME280;2386;42.138;24.746;2023-04-26T10:14:36;98527.28;;;20.72;49.77
4745;BME280;2386;42.138;24.746;2023-04-26T10:17:05;98533.47;;;20.77;49.48
4745;BME280;2386;42.138;24.746;2023-04-26T10:19:34;98528.72;;;20.95;48.34
4745;BME280;2386;42.138;24.746;2023-04-26T10:22:04;98528.53;;;21.09;47.51
4745;BME280;2386;42.138;24.746;2023-04-26T10:24:31;98516.84;;;21.20;47.98
4745;BME280;2386;42.138;24.746;2023-04-26T10:26:57;98525.47;;;21.10;47.28
4745;BME280;2386;42.138;24.746;2023-04-26T10:29:24;98512.31;;;21.16;47.91
4745;BME280;2386;42.138;24.746;2023-04-26T10:32:06;98519.13;;;21.27;51.90
4745;BME280;2386;42.138;24.746;2023-04-26T10:34:36;98523.34;;;21.33;47.79
4745;BME280;2386;42.138;24.746;2023-04-26T10:39:30;98522.69;;;21.19;47.24
4745;BME280;2386;42.138;24.746;2023-04-26T10:42:31;98526.94;;;21.08;47.07
4745;BME280;2386;42.138;24.746;2023-04-26T10:44:58;98532.63;;;20.94;48.10
4745;BME280;2386;42.138;24.746;2023-04-26T10:47:30;98535.25;;;20.73;47.23
4745;BME280;2386;42.138;24.746;2023-04-26T10:50:11;98523.88;;;20.40;48.60
4745;BME280;2386;42.138;24.746;2023-04-26T10:55:37;98525.81;;;19.83;50.51
4745;BME280;2386;42.138;24.746;2023-04-26T10:58:33;98525.59;;;19.71;53.27
4745;BME280;2386;42.138;24.746;2023-04-26T11:04:49;98534.00;;;19.65;52.05
4745;BME280;2386;42.138;24.746;2023-04-26T11:06:46;98531.28;;;19.74;54.69
4745;BME280;2386;42.138;24.746;2023-04-26T11:09:39;98533.44;;;19.24;51.55
4745;BME280;2386;42.138;24.746;2023-04-26T11:12:10;98530.78;;;19.41;53.84
4745;BME280;2386;42.138;24.746;2023-04-26T11:14:36;98520.03;;;19.53;55.60
4745;BME280;2386;42.138;24.746;2023-04-26T11:17:03;98524.19;;;19.51;55.04
4745;BME280;2386;42.138;24.746;2023-04-26T11:19:29;98533.53;;;19.41;53.07
4745;BME280;2386;42.138;24.746;2023-04-26T11:21:54;98531.56;;;19.42;54.93
4745;BME280;2386;42.138;24.746;2023-04-26T11:24:29;98526.22;;;19.36;52.68
4745;BME280;2386;42.138;24.746;2023-04-26T11:55:17;98568.81;;;19.17;48.39
4745;BME280;2386;42.138;24.746;2023-04-26T11:57:42;98572.69;;;19.16;48.98
4745;BME280;2386;42.138;24.746;2023-04-26T12:00:12;98579.25;;;19.06;49.56
4745;BME280;2386;42.138;24.746;2023-04-26T12:02:47;98570.22;;;18.69;50.04
4745;BME280;2386;42.138;24.746;2023-04-26T12:05:23;98570.25;;;18.56;51.48
4745;BME280;2386;42.138;24.746;2023-04-26T12:07:50;98564.66;;;18.47;51.82
4745;BME280;2386;42.138;24.746;2023-04-26T12:10:18;98564.66;;;18.47;50.82
4745;BME280;2386;42.138;24.746;2023-04-26T12:13:06;98577.84;;;18.59;50.84
4745;BME280;2386;42.138;24.746;2023-04-26T12:15:32;98563.34;;;18.45;50.14
4745;BME280;2386;42.138;24.746;2023-04-26T12:20:32;98584.63;;;18.25;49.76
4745;BME280;2386;42.138;24.746;2023-04-26T12:23:05;98570.91;;;18.25;50.61
4745;BME280;2386;42.138;24.746;2023-04-26T12:25:35;98574.84;;;18.47;55.03
4745;BME280;2386;42.138;24.746;2023-04-26T12:28:03;98566.38;;;18.57;59.73
4745;BME280;2386;42.138;24.746;2023-04-26T12:30:29;98559.41;;;18.73;60.92
4745;BME280;2386;42.138;24.746;2023-04-26T12:33:01;98555.63;;;19.05;62.94
4745;BME280;2386;42.138;24.746;2023-04-26T12:35:26;98550.00;;;19.10;63.50
4745;BME280;2386;42.138;24.746;2023-04-26T12:37:52;98552.25;;;18.86;58.55
4745;BME280;2386;42.138;24.746;2023-04-26T12:40:21;98566.38;;;18.93;57.05
4745;BME280;2386;42.138;24.746;2023-04-26T12:42:47;98574.84;;;18.83;56.20
4745;BME280;2386;42.138;24.746;2023-04-26T12:45:13;98565.41;;;18.75;57.06
4745;BME280;2386;42.138;24.746;2023-04-26T12:47:39;98562.22;;;18.46;60.83
4745;BME280;2386;42.138;24.746;2023-04-26T12:50:04;98566.22;;;18.26;62.38
4745;BME280;2386;42.138;24.746;2023-04-26T12:52:30;98551.56;;;18.30;65.97
4745;BME280;2386;42.138;24.746;2023-04-26T12:54:57;98562.16;;;18.23;61.36
4745;BME280;2386;42.138;24.746;2023-04-26T12:57:22;98565.00;;;18.18;58.92
4745;BME280;2386;42.138;24.746;2023-04-26T12:59:48;98571.31;;;18.05;59.58
4745;BME280;2386;42.138;24.746;2023-04-26T13:02:13;98558.31;;;17.97;60.57
4745;BME280;2386;42.138;24.746;2023-04-26T13:04:39;98549.78;;;17.85;59.34
4745;BME280;2386;42.138;24.746;2023-04-26T13:07:04;98560.94;;;18.02;58.21
4745;BME280;2386;42.138;24.746;2023-04-26T13:09:30;98557.50;;;18.10;58.48
4745;BME280;2386;42.138;24.746;2023-04-26T13:11:55;98549.84;;;18.21;59.57
4745;BME280;2386;42.138;24.746;2023-04-26T13:14:21;98547.50;;;18.28;58.33
4745;BME280;2386;42.138;24.746;2023-04-26T13:16:49;98558.06;;;18.34;58.18
4745;BME280;2386;42.138;24.746;2023-04-26T13:19:16;98560.50;;;18.50;57.33
4745;BME280;2386;42.138;24.746;2023-04-26T13:21:42;98554.56;;;18.56;58.17
4745;BME280;2386;42.138;24.746;2023-04-26T13:24:07;98562.66;;;18.75;56.17
4745;BME280;2386;42.138;24.746;2023-04-26T13:26:33;98560.19;;;18.87;53.87
4745;BME280;2386;42.138;24.746;2023-04-26T13:28:58;98556.88;;;18.99;54.22
4745;BME280;2386;42.138;24.746;2023-04-26T13:31:24;98550.88;;;19.19;54.35
4745;BME280;2386;42.138;24.746;2023-04-26T13:33:49;98553.94;;;19.18;50.93
4745;BME280;2386;42.138;24.746;2023-04-26T13:36:15;98552.75;;;19.10;50.42
4745;BME280;2386;42.138;24.746;2023-04-26T13:38:41;98553.88;;;19.09;50.84
4745;BME280;2386;42.138;24.746;2023-04-26T13:41:07;98550.50;;;19.12;50.88
4745;BME280;2386;42.138;24.746;2023-04-26T13:43:33;98550.31;;;19.09;50.42
4745;BME280;2386;42.138;24.746;2023-04-26T13:45:59;98554.00;;;19.04;49.00
4745;BME280;2386;42.138;24.746;2023-04-26T13:48:25;98563.56;;;19.07;49.83
4745;BME280;2386;42.138;24.746;2023-04-26T13:50:50;98585.38;;;19.03;50.57
4745;BME280;2386;42.138;24.746;2023-04-26T13:53:16;98582.31;;;19.04;49.69
4745;BME280;2386;42.138;24.746;2023-04-26T13:55:41;98587.38;;;19.11;50.61
4745;BME280;2386;42.138;24.746;2023-04-26T13:58:07;98590.44;;;19.10;50.82
4745;BME280;2386;42.138;24.746;2023-04-26T14:00:32;98605.31;;;19.09;50.87
4745;BME280;2386;42.138;24.746;2023-04-26T14:02:58;98598.09;;;18.99;58.36
4745;BME280;2386;42.138;24.746;2023-04-26T14:05:23;98612.22;;;19.06;66.91
4745;BME280;2386;42.138;24.746;2023-04-26T14:07:49;98607.19;;;18.50;73.59
4745;BME280;2386;42.138;24.746;2023-04-26T14:10:14;98608.53;;;18.11;77.85
4745;BME280;2386;42.138;24.746;2023-04-26T14:12:40;98622.44;;;18.28;78.47
4745;BME280;2386;42.138;24.746;2023-04-26T14:15:06;98609.75;;;18.05;79.05
4745;BME280;2386;42.138;24.746;2023-04-26T14:17:32;98611.56;;;17.96;80.75